Time;durP1;ratioP1;P1;durP2;ratioP2;P2;SDS_P1;SDS_P2;PMS_P1;PMS_P2;Temp;Humidity;BMP_temperature;BMP_pressure;BME280_temperature;BME280_humidity;BME280_pressure;Samples;Min_cycle;Max_cycle;Signal;HPM_P1;HPM_P2
2022/01/19 00:00:52;;;;;;;13.95;9.65;;;;;;;15.40;40.12;94748.97;4918054;29;20043;-85
2022/01/19 00:03:17;;;;;;;13.30;9.27;;;;;;;15.40;39.99;94740.78;4933049;28;20051;-84
2022/01/19 00:05:43;;;;;;;15.15;10.73;;;;;;;15.37;39.96;94725.34;4933950;28;20043;-86
2022/01/19 00:08:08;;;;;;;14.95;9.52;;;;;;;15.39;39.64;94724.88;4917021;29;20043;-87
2022/01/19 00:10:34;;;;;;;14.88;8.93;;;;;;;15.37;39.65;94721.91;4933440;28;20103;-86
2022/01/19 00:13:00;;;;;;;15.98;11.18;;;;;;;15.40;39.81;94729.88;4933557;28;20062;-87
2022/01/19 00:15:26;;;;;;;14.02;8.90;;;;;;;15.40;39.85;94718.97;4933463;28;20039;-86
2022/01/19 00:17:58;;;;;;;12.80;9.00;;;;;;;15.40;39.86;94715.50;4949235;28;20085;-84
2022/01/19 00:20:24;;;;;;;12.77;8.38;;;;;;;15.40;39.92;94724.44;4933730;28;20043;-84
2022/01/19 00:22:50;;;;;;;14.57;10.05;;;;;;;15.39;39.68;94716.72;4933009;29;20143;-84
2022/01/19 00:25:15;;;;;;;10.25;7.90;;;;;;;15.42;39.70;94718.53;4929464;28;20027;-84
2022/01/19 00:27:41;;;;;;;15.43;9.65;;;;;;;15.37;39.60;94719.16;4934700;28;20039;-85
2022/01/19 00:30:06;;;;;;;19.13;11.60;;;;;;;15.35;39.86;94714.19;4918668;28;20059;-85
2022/01/19 00:32:33;;;;;;;11.93;8.45;;;;;;;15.38;39.79;94721.41;4950282;28;20582;-85
2022/01/19 00:34:58;;;;;;;18.60;12.20;;;;;;;15.37;39.71;94719.91;4950374;28;20051;-84
2022/01/19 00:37:24;;;;;;;11.43;8.32;;;;;;;15.36;39.70;94721.13;4918164;28;20039;-84
2022/01/19 00:39:49;;;;;;;16.05;11.45;;;;;;;15.33;39.82;94710.41;4934704;28;20521;-84
2022/01/19 00:42:15;;;;;;;12.23;9.07;;;;;;;15.37;39.71;94713.72;4950302;28;20051;-84
2022/01/19 00:44:40;;;;;;;19.15;11.40;;;;;;;15.34;40.04;94711.91;4949985;28;20330;-84
2022/01/19 00:47:06;;;;;;;11.52;8.52;;;;;;;15.37;39.79;94717.16;4934267;28;20050;-85
2022/01/19 00:49:31;;;;;;;10.77;8.00;;;;;;;15.38;40.12;94723.38;4934153;29;20047;-85
2022/01/19 00:51:56;;;;;;;15.90;10.65;;;;;;;15.35;39.80;94716.91;4952186;28;20050;-84
2022/01/19 00:54:22;;;;;;;9.70;7.38;;;;;;;15.32;39.97;94717.81;4933901;28;20051;-86
2022/01/19 00:56:47;;;;;;;10.73;7.40;;;;;;;15.37;39.82;94716.44;4918360;29;20418;-86
2022/01/19 00:59:12;;;;;;;12.98;8.98;;;;;;;15.34;39.83;94714.63;4933690;28;20051;-84
2022/01/19 01:01:38;;;;;;;11.93;8.60;;;;;;;15.37;39.97;94708.28;4934349;28;20059;-86
2022/01/19 01:04:03;;;;;;;9.25;6.70;;;;;;;15.36;39.88;94696.63;4917550;28;20039;-86
2022/01/19 01:06:30;;;;;;;14.63;10.73;;;;;;;15.36;39.67;94698.59;4950637;28;20035;-86
2022/01/19 01:08:55;;;;;;;10.43;7.32;;;;;;;15.36;39.77;94696.63;4949726;28;20044;-84
2022/01/19 01:11:28;;;;;;;10.63;7.65;;;;;;;15.34;40.02;94692.84;4949369;28;20043;-86
2022/01/19 01:18:58;;;;;;;14.40;8.80;;;;;;;15.34;39.71;94682.69;4934902;28;20031;-84
2022/01/19 01:21:23;;;;;;;17.15;11.02;;;;;;;15.38;39.62;94685.22;4933373;28;20382;-86
2022/01/19 01:23:49;;;;;;;13.52;8.55;;;;;;;15.36;39.83;94683.00;4917822;29;20047;-86
2022/01/19 01:26:14;;;;;;;12.50;8.38;;;;;;;15.34;39.76;94674.53;4917240;28;20478;-86
2022/01/19 01:28:40;;;;;;;10.73;7.40;;;;;;;15.28;40.03;94665.47;4934206;28;20039;-84
2022/01/19 01:31:07;;;;;;;10.77;7.03;;;;;;;15.27;39.96;94653.06;4948755;28;20043;-84
2022/01/19 01:33:33;;;;;;;12.52;8.82;;;;;;;15.33;39.65;94658.63;4932871;28;20288;-86
2022/01/19 01:35:58;;;;;;;13.48;7.50;;;;;;;15.32;39.81;94638.06;4933772;28;20047;-84
2022/01/19 01:38:24;;;;;;;10.18;6.63;;;;;;;15.29;39.80;94638.97;4917103;28;20034;-84
2022/01/19 01:40:49;;;;;;;15.02;8.20;;;;;;;15.33;39.61;94634.88;4933074;28;20057;-83
2022/01/19 01:43:15;;;;;;;16.60;9.90;;;;;;;15.31;39.85;94631.09;4932786;28;20040;-86
2022/01/19 01:45:42;;;;;;;18.05;11.93;;;;;;;15.29;40.04;94641.69;4933426;28;20051;-84
2022/01/19 01:53:26;;;;;;;8.82;6.60;;;;;;;15.33;39.49;94637.59;4935491;28;20053;-84
2022/01/19 01:55:54;;;;;;;9.98;6.30;;;;;;;15.29;39.62;94637.00;4934099;28;20043;-84
2022/01/19 01:58:20;;;;;;;9.18;6.63;;;;;;;15.35;39.29;94623.50;4933159;28;20040;-84
2022/01/19 02:00:45;;;;;;;10.75;6.35;;;;;;;15.34;39.57;94622.75;4949055;28;20035;-85
2022/01/19 02:03:12;;;;;;;10.30;7.57;;;;;;;15.32;39.51;94597.19;4932596;28;20039;-83
2022/01/19 02:05:47;;;;;;;16.35;8.27;;;;;;;15.32;39.54;94587.03;4933285;28;20728;-85
2022/01/19 02:08:20;;;;;;;8.73;6.15;;;;;;;15.35;39.56;94588.09;4947692;28;20047;-84
2022/01/19 02:11:06;;;;;;;10.70;6.72;;;;;;;15.30;39.73;94578.59;4947952;28;20036;-84
2022/01/19 02:16:28;;;;;;;10.23;7.63;;;;;;;15.33;39.64;94574.19;4932269;28;20488;-86
2022/01/19 02:24:04;;;;;;;14.10;9.48;;;;;;;15.33;39.51;94552.38;4932472;28;20047;-86
2022/01/19 02:26:48;;;;;;;12.38;7.35;;;;;;;15.35;39.59;94550.72;4917528;29;20042;-85
2022/01/19 02:40:11;;;;;;;11.52;7.68;;;;;;;15.31;39.61;94533.03;4935399;28;20057;-86
2022/01/19 02:40:12;;;;;;;11.90;7.30;;;;;;;15.33;39.71;94533.31;4935379;28;20082;-85
2022/01/19 02:42:41;;;;;;;13.18;9.02;;;;;;;15.26;39.67;94523.50;4949940;28;20248;-86
2022/01/19 02:50:17;;;;;;;8.85;6.07;;;;;;;15.29;39.51;94513.66;4952816;28;20462;-86
2022/01/19 02:52:43;;;;;;;8.18;6.05;;;;;;;15.31;39.45;94520.16;4936241;28;20035;-84
2022/01/19 02:55:08;;;;;;;14.38;10.50;;;;;;;15.29;39.73;94505.50;4936083;28;20043;-87
2022/01/19 02:57:36;;;;;;;10.90;6.38;;;;;;;15.29;39.46;94505.50;4952704;28;20050;-84
2022/01/19 03:10:57;;;;;;;9.20;5.65;;;;;;;15.30;39.31;94469.63;4938505;28;20058;-85
2022/01/19 03:13:23;;;;;;;8.63;5.97;;;;;;;15.27;39.64;94472.50;4935989;28;20031;-86
2022/01/19 03:15:48;;;;;;;9.40;6.10;;;;;;;15.24;39.65;94455.13;4935875;28;20073;-86
2022/01/19 03:18:14;;;;;;;11.15;7.72;;;;;;;15.28;39.59;94454.94;4935646;28;20095;-86
2022/01/19 03:20:39;;;;;;;10.68;6.20;;;;;;;15.30;39.54;94447.06;4935858;29;20047;-85
2022/01/19 03:23:14;;;;;;;10.50;6.72;;;;;;;15.28;39.44;94444.06;4935370;28;20388;-85
2022/01/19 03:25:40;;;;;;;9.35;7.32;;;;;;;15.26;39.66;94447.22;4951916;28;20035;-85
2022/01/19 03:28:05;;;;;;;9.40;6.95;;;;;;;15.28;39.51;94435.88;4919745;28;20035;-85
2022/01/19 03:30:31;;;;;;;9.73;6.97;;;;;;;15.28;39.48;94438.59;4935648;29;20201;-84
2022/01/19 03:32:56;;;;;;;22.70;13.82;;;;;;;15.21;39.50;94436.97;4936052;28;20035;-84
2022/01/19 03:35:21;;;;;;;9.90;7.13;;;;;;;15.23;39.66;94434.53;4919147;28;20201;-83
2022/01/19 03:37:47;;;;;;;6.93;5.20;;;;;;;15.27;39.35;94445.28;4935888;28;20047;-86
2022/01/19 03:40:13;;;;;;;10.15;6.78;;;;;;;15.30;39.67;94444.34;4950821;28;20261;-87
2022/01/19 03:42:38;;;;;;;10.73;6.53;;;;;;;15.29;39.31;94434.66;4935832;28;20258;-87
2022/01/19 03:45:06;;;;;;;8.07;5.85;;;;;;;15.26;39.37;94432.88;4934705;28;20043;-86
2022/01/19 03:47:38;;;;;;;9.15;6.88;;;;;;;15.29;39.53;94431.94;4951661;28;20043;-84
2022/01/19 03:50:04;;;;;;;8.50;6.07;;;;;;;15.31;39.23;94435.69;4935583;28;20043;-85
2022/01/19 03:52:30;;;;;;;13.80;6.80;;;;;;;15.28;39.37;94428.47;4951603;28;20070;-84
2022/01/19 03:54:55;;;;;;;8.05;6.53;;;;;;;15.25;39.29;94436.81;4951324;28;20036;-84
2022/01/19 03:57:21;;;;;;;10.02;6.43;;;;;;;15.35;39.23;94424.63;4918228;28;20032;-84
2022/01/19 03:59:47;;;;;;;11.60;8.13;;;;;;;15.31;39.57;94429.50;4936055;28;20035;-86
2022/01/19 04:02:12;;;;;;;10.60;6.70;;;;;;;15.31;39.58;94426.78;4934440;28;20040;-86
2022/01/19 04:04:56;;;;;;;12.95;9.07;;;;;;;15.24;39.67;94421.69;4951326;28;20047;-87
2022/01/19 04:07:22;;;;;;;8.10;5.90;;;;;;;15.29;39.03;94427.25;4950841;28;22796;-84
2022/01/19 04:09:47;;;;;;;10.90;7.15;;;;;;;15.28;39.36;94423.00;4934934;28;20090;-83
2022/01/19 04:12:17;;;;;;;8.63;5.97;;;;;;;15.29;39.54;94413.63;4934579;28;20423;-84
2022/01/19 04:14:42;;;;;;;6.55;5.07;;;;;;;15.33;39.11;94410.72;4920467;28;20506;-85
2022/01/19 04:17:10;;;;;;;9.00;6.03;;;;;;;15.29;39.30;94397.28;4950287;28;20035;-86
2022/01/19 04:19:46;;;;;;;10.95;7.43;;;;;;;15.29;39.12;94391.84;4934896;28;20039;-85
2022/01/19 04:22:15;;;;;;;11.68;7.30;;;;;;;15.29;39.39;94394.56;4950099;28;20511;-84
2022/01/19 04:24:41;;;;;;;12.40;8.18;;;;;;;15.26;39.31;94387.31;4951038;28;20118;-85
2022/01/19 04:32:29;;;;;;;8.85;5.53;;;;;;;15.31;39.64;94389.41;4950193;28;20158;-87
2022/01/19 04:34:54;;;;;;;8.02;5.18;;;;;;;15.29;39.36;94388.34;4950108;28;20507;-84
2022/01/19 04:37:30;;;;;;;11.00;7.82;;;;;;;15.25;39.40;94377.63;4934299;28;20043;-84
2022/01/19 05:01:44;;;;;;;13.10;5.70;;;;;;;15.26;39.34;94338.28;4942849;28;20059;-87
2022/01/19 05:04:25;;;;;;;8.75;5.20;;;;;;;15.28;39.17;94340.53;4913735;28;20510;-85
2022/01/19 05:07:03;;;;;;;8.73;6.18;;;;;;;15.25;39.31;94325.13;4930352;28;20051;-86
2022/01/19 05:14:45;;;;;;;12.88;7.75;;;;;;;15.22;39.46;94331.50;4931458;28;20038;-85
2022/01/19 05:17:10;;;;;;;6.85;5.07;;;;;;;15.25;39.20;94322.41;4940093;28;20032;-84
2022/01/19 05:19:35;;;;;;;13.70;8.52;;;;;;;15.22;39.30;94321.38;4933824;28;20118;-87
2022/01/19 05:22:01;;;;;;;9.23;4.60;;;;;;;15.25;39.24;94314.97;4933662;28;20047;-86
2022/01/19 05:24:26;;;;;;;6.85;4.90;;;;;;;15.27;39.21;94314.53;4949398;28;20043;-86
2022/01/19 05:26:52;;;;;;;8.48;6.30;;;;;;;15.25;39.78;94311.50;4933644;28;20098;-85
2022/01/19 05:29:17;;;;;;;13.20;7.50;;;;;;;15.30;39.29;94316.31;4949335;28;20094;-88
2022/01/19 05:31:43;;;;;;;14.32;8.35;;;;;;;15.38;40.01;94307.28;4918592;29;20039;-85
2022/01/19 05:34:08;;;;;;;7.82;5.07;;;;;;;15.37;39.37;94303.06;4950235;28;20550;-86
2022/01/19 05:36:33;;;;;;;15.52;8.25;;;;;;;15.43;39.70;94295.72;4953159;28;20043;-85
2022/01/19 05:39:03;;;;;;;13.60;9.85;;;;;;;15.53;39.57;94290.94;4952603;28;20118;-85
2022/01/19 05:41:28;;;;;;;15.68;9.57;;;;;;;15.50;39.38;94293.84;4950591;28;20049;-86
2022/01/19 05:43:54;;;;;;;10.57;7.57;;;;;;;15.47;39.96;94292.81;4948916;28;20039;-89
2022/01/19 05:46:21;;;;;;;16.25;11.00;;;;;;;15.41;39.33;94290.00;4958137;28;20140;-88
2022/01/19 05:48:46;;;;;;;9.13;6.57;;;;;;;15.41;39.32;94289.25;4966694;28;20162;-89
2022/01/19 05:51:11;;;;;;;18.23;7.53;;;;;;;15.40;39.19;94290.47;4943252;28;20478;-90
2022/01/19 05:53:37;;;;;;;29.92;9.20;;;;;;;15.44;39.31;94288.31;4956220;28;20551;-88
2022/01/19 05:56:02;;;;;;;20.35;8.68;;;;;;;15.41;39.12;94292.72;4950428;28;20047;-86
2022/01/19 05:58:28;;;;;;;31.52;10.52;;;;;;;15.40;38.96;94287.75;4949515;28;20151;-85
2022/01/19 06:00:53;;;;;;;64.70;12.95;;;;;;;15.36;39.12;94284.47;4948823;28;20031;-89
2022/01/19 06:03:19;;;;;;;33.97;14.25;;;;;;;15.35;39.13;94289.16;4949988;28;20661;-89
2022/01/19 06:05:44;;;;;;;48.13;14.82;;;;;;;15.30;38.44;94289.81;4934441;28;20494;-86
2022/01/19 06:10:48;;;;;;;46.63;17.63;;;;;;;15.27;38.53;94290.75;4934721;28;20045;-85
2022/01/19 06:13:16;;;;;;;53.60;21.08;;;;;;;15.29;38.52;94282.13;4946530;28;20039;-87
2022/01/19 06:15:42;;;;;;;92.50;34.15;;;;;;;15.30;38.96;94291.78;4945412;28;20047;-87
2022/01/19 06:18:08;;;;;;;182.20;84.63;;;;;;;15.38;38.20;94276.56;4948777;28;20081;-84
2022/01/19 06:20:33;;;;;;;114.35;45.20;;;;;;;15.32;37.83;94273.00;4932981;28;20491;-87
2022/01/19 06:22:59;;;;;;;100.43;31.92;;;;;;;15.23;37.57;94279.28;4956981;28;20118;-87
2022/01/19 06:25:24;;;;;;;79.95;30.27;;;;;;;15.23;36.74;94273.09;4938374;28;20044;-88
2022/01/19 06:27:50;;;;;;;77.40;31.02;;;;;;;15.19;36.41;94278.72;4958009;28;20498;-86
2022/01/19 06:30:15;;;;;;;95.13;33.28;;;;;;;15.17;36.31;94269.50;4938733;28;20425;-90
2022/01/19 06:32:41;;;;;;;74.82;29.73;;;;;;;15.20;36.09;94261.16;4958019;28;20130;-86
2022/01/19 06:35:07;;;;;;;98.40;30.83;;;;;;;15.18;35.99;94277.22;4938538;28;20454;-90
2022/01/19 06:37:33;;;;;;;95.65;30.05;;;;;;;15.17;36.48;94264.06;4955246;28;20070;-87
2022/01/19 06:39:58;;;;;;;88.63;32.25;;;;;;;15.17;36.73;94248.47;4956258;28;20062;-89
2022/01/19 06:42:24;;;;;;;97.18;33.10;;;;;;;15.22;36.41;94258.72;4953977;28;20449;-86
2022/01/19 06:44:49;;;;;;;106.55;35.53;;;;;;;15.23;37.01;94249.31;4937663;28;20043;-88
2022/01/19 06:47:17;;;;;;;93.05;30.92;;;;;;;15.18;36.43;94238.34;4945936;28;20070;-86
2022/01/19 06:49:43;;;;;;;83.57;30.17;;;;;;;15.18;37.59;94244.53;4949230;28;20035;-86
2022/01/19 06:52:08;;;;;;;103.00;36.25;;;;;;;15.22;36.94;94239.66;4952669;28;20071;-87
2022/01/19 06:54:34;;;;;;;95.10;41.17;;;;;;;15.20;36.94;94233.91;4952003;28;20130;-86
2022/01/19 06:56:59;;;;;;;91.25;36.53;;;;;;;15.17;36.17;94237.56;4954423;28;20049;-85
2022/01/19 06:59:25;;;;;;;104.22;36.00;;;;;;;15.15;36.07;94237.31;4954584;28;20600;-86
2022/01/19 07:01:51;;;;;;;84.47;36.72;;;;;;;15.14;36.35;94226.91;4940044;28;20047;-87
2022/01/19 07:04:17;;;;;;;93.30;40.30;;;;;;;15.16;36.35;94230.63;4958696;28;20130;-85
2022/01/19 07:06:42;;;;;;;106.85;47.55;;;;;;;15.24;36.62;94226.31;4958906;28;20125;-84
2022/01/19 07:09:09;;;;;;;110.15;48.35;;;;;;;15.33;36.27;94239.84;4921311;28;20131;-86
2022/01/19 07:11:36;;;;;;;100.60;48.83;;;;;;;15.35;36.81;94242.84;4937808;28;20051;-85
2022/01/19 07:14:02;;;;;;;100.90;47.28;;;;;;;15.40;36.79;94239.44;4955192;28;20051;-86
2022/01/19 07:16:27;;;;;;;99.15;45.53;;;;;;;15.43;36.74;94241.25;4957981;28;20039;-85
2022/01/19 07:18:54;;;;;;;101.00;44.78;;;;;;;15.43;36.70;94233.06;4950757;28;20047;-86
2022/01/19 07:21:19;;;;;;;90.43;44.15;;;;;;;15.34;36.80;94232.44;4945874;28;20054;-86
2022/01/19 07:23:45;;;;;;;96.00;43.20;;;;;;;15.36;36.67;94232.72;4948544;28;20036;-86
2022/01/19 07:26:10;;;;;;;93.45;43.72;;;;;;;15.39;37.09;94229.03;4955693;28;20414;-86
2022/01/19 07:28:36;;;;;;;93.63;43.33;;;;;;;15.33;36.80;94236.38;4952396;28;20507;-86
2022/01/19 07:31:01;;;;;;;73.00;38.00;;;;;;;15.32;37.13;94237.59;4955022;28;20036;-87
2022/01/19 07:33:26;;;;;;;84.75;39.25;;;;;;;15.29;36.98;94236.56;4954752;28;20050;-86
2022/01/19 07:35:52;;;;;;;70.10;37.08;;;;;;;15.26;37.20;94234.03;4973757;28;20093;-85
2022/01/19 07:38:18;;;;;;;70.43;35.42;;;;;;;15.31;36.96;94228.66;4956157;28;20690;-83
2022/01/19 07:40:44;;;;;;;73.90;35.58;;;;;;;15.38;36.94;94235.69;4956195;28;20125;-87
2022/01/19 07:43:09;;;;;;;82.88;36.65;;;;;;;15.37;37.00;94236.94;4965607;28;20043;-85
2022/01/19 07:45:35;;;;;;;59.33;22.10;;;;;;;15.26;33.54;94236.75;4956002;28;20050;-88
2022/01/19 07:48:00;;;;;;;53.28;23.77;;;;;;;15.13;34.18;94230.84;4956052;28;20512;-86
2022/01/19 07:50:26;;;;;;;60.10;24.17;;;;;;;15.17;34.56;94228.66;4957502;28;20039;-85
2022/01/19 07:52:51;;;;;;;100.00;25.88;;;;;;;15.21;33.08;94227.25;4936042;29;20042;-88
2022/01/19 07:55:17;;;;;;;99.75;25.13;;;;;;;15.22;33.03;94226.03;4927114;28;20097;-89
2022/01/19 07:57:47;;;;;;;77.32;26.25;;;;;;;15.18;33.45;94222.00;4940445;28;20047;-87
2022/01/19 08:00:14;;;;;;;83.18;26.75;;;;;;;15.22;34.24;94217.13;4954680;28;20043;-86
2022/01/19 08:02:40;;;;;;;87.63;29.73;;;;;;;15.24;34.17;94211.94;4929254;28;20054;-88
2022/01/19 08:05:07;;;;;;;82.60;31.88;;;;;;;15.27;35.12;94211.75;4925635;28;20043;-86
2022/01/19 08:07:33;;;;;;;80.18;30.08;;;;;;;15.26;35.39;94215.72;4911187;29;20130;-86
2022/01/19 08:09:59;;;;;;;64.45;23.25;;;;;;;15.26;34.34;94212.22;4930442;28;20043;-87
2022/01/19 08:12:25;;;;;;;42.28;16.95;;;;;;;15.11;32.84;94211.50;4927381;28;20448;-86
2022/01/19 08:14:50;;;;;;;57.88;22.92;;;;;;;15.02;32.99;94215.03;4925773;28;20251;-88
2022/01/19 08:17:16;;;;;;;42.70;17.23;;;;;;;14.90;31.66;94225.00;4956501;28;20150;-86
2022/01/19 08:19:42;;;;;;;33.30;13.43;;;;;;;14.73;31.25;94221.19;4925143;28;20403;-87
2022/01/19 08:22:07;;;;;;;35.75;11.90;;;;;;;14.72;31.61;94220.44;4955840;28;20039;-87
2022/01/19 08:24:33;;;;;;;44.25;15.05;;;;;;;14.78;31.16;94214.38;4924728;28;20050;-88
2022/01/19 08:26:58;;;;;;;68.78;19.92;;;;;;;14.84;31.49;94207.06;4937946;28;20065;-86
2022/01/19 08:29:25;;;;;;;111.32;37.67;;;;;;;14.89;31.73;94209.13;4928031;28;20042;-86
2022/01/19 08:31:50;;;;;;;130.05;49.80;;;;;;;14.97;32.11;94200.09;4938531;28;20043;-85
2022/01/19 08:34:17;;;;;;;132.13;45.88;;;;;;;15.03;32.94;94198.25;4951409;28;20053;-87
2022/01/19 08:36:43;;;;;;;116.30;49.92;;;;;;;15.13;33.40;94195.44;4952184;28;20066;-88
2022/01/19 08:39:09;;;;;;;125.95;52.90;;;;;;;15.05;33.88;94189.59;4936962;28;20070;-87
2022/01/19 08:41:35;;;;;;;97.05;43.83;;;;;;;15.09;34.15;94196.38;4932722;28;20044;-89
2022/01/19 08:44:01;;;;;;;128.85;51.67;;;;;;;15.15;34.22;94193.75;4917874;29;20036;-85
2022/01/19 08:46:26;;;;;;;139.70;69.32;;;;;;;15.11;34.62;94201.34;4951456;28;20134;-87
2022/01/19 08:48:52;;;;;;;231.75;76.93;;;;;;;15.23;35.06;94207.72;4931919;28;20047;-89
2022/01/19 08:51:17;;;;;;;191.10;82.13;;;;;;;15.23;35.22;94213.91;4917161;28;20455;-86
2022/01/19 08:53:43;;;;;;;220.55;89.47;;;;;;;15.23;35.16;94207.72;4944535;28;20032;-89
2022/01/19 08:56:08;;;;;;;188.65;84.82;;;;;;;15.30;35.39;94210.81;4923658;28;20036;-86
2022/01/19 08:58:45;;;;;;;173.32;80.72;;;;;;;15.28;35.61;94207.06;4932053;28;20054;-88
2022/01/19 09:01:11;;;;;;;175.63;82.97;;;;;;;15.32;35.01;94211.09;4867082;29;20124;-88
2022/01/19 09:03:36;;;;;;;158.15;80.72;;;;;;;15.36;35.40;94208.19;4893367;29;20037;-89
2022/01/19 09:06:01;;;;;;;164.23;85.82;;;;;;;15.34;35.38;94214.13;4860502;29;20049;-88
2022/01/19 09:08:30;;;;;;;179.23;91.68;;;;;;;15.34;35.50;94205.94;4876895;29;20461;-88
2022/01/19 09:10:58;;;;;;;171.65;92.93;;;;;;;15.41;35.98;94212.97;4880264;29;20041;-86
2022/01/19 09:13:24;;;;;;;189.38;100.20;;;;;;;15.38;35.54;94206.47;4893555;29;20049;-88
2022/01/19 09:15:49;;;;;;;189.65;101.32;;;;;;;15.48;35.31;94204.41;4863384;29;20056;-87
2022/01/19 09:18:15;;;;;;;180.77;93.68;;;;;;;15.46;35.23;94198.69;4865301;29;20695;-89
2022/01/19 09:20:40;;;;;;;180.50;100.00;;;;;;;15.46;35.40;94206.84;4866134;29;20049;-88
2022/01/19 09:23:06;;;;;;;213.27;106.50;;;;;;;15.43;35.24;94197.66;4895132;29;20043;-86
2022/01/19 09:25:32;;;;;;;198.32;106.25;;;;;;;15.40;35.31;94200.56;4880015;29;20033;-89
2022/01/19 09:27:58;;;;;;;206.70;112.57;;;;;;;15.46;35.07;94195.97;4880068;29;20377;-87
2022/01/19 09:30:24;;;;;;;240.00;120.30;;;;;;;15.52;35.39;94187.88;4867157;29;20173;-86
2022/01/19 09:33:06;;;;;;;225.50;120.68;;;;;;;15.54;35.04;94185.44;4924092;28;20068;-88
2022/01/19 09:35:49;;;;;;;233.32;121.22;;;;;;;15.52;35.23;94188.63;4949757;28;20043;-87
2022/01/19 09:38:15;;;;;;;254.38;123.93;;;;;;;15.52;34.83;94185.91;4935391;28;20071;-84
2022/01/19 09:40:40;;;;;;;237.90;123.65;;;;;;;15.56;34.90;94189.22;4948370;28;20123;-87
2022/01/19 09:43:07;;;;;;;240.05;122.53;;;;;;;15.54;35.18;94190.88;4932073;28;20713;-85
2022/01/19 09:45:33;;;;;;;242.32;126.72;;;;;;;15.53;34.89;94183.94;4932633;28;20628;-88
2022/01/19 09:47:59;;;;;;;250.88;124.57;;;;;;;15.56;35.06;94188.47;4919028;29;20047;-88
2022/01/19 09:50:24;;;;;;;414.98;146.93;;;;;;;15.55;35.22;94192.38;4950072;28;20027;-89
2022/01/19 09:52:49;;;;;;;549.80;160.65;;;;;;;15.54;34.90;94182.72;4921795;29;20051;-87
2022/01/19 09:55:15;;;;;;;567.97;166.35;;;;;;;15.55;35.12;94174.06;4907754;28;20501;-86
2022/01/19 09:57:40;;;;;;;519.17;146.57;;;;;;;15.57;35.11;94173.63;4935075;28;20519;-87
2022/01/19 10:00:06;;;;;;;369.63;136.02;;;;;;;15.59;35.16;94168.44;4935322;28;20054;-87
2022/01/19 10:02:32;;;;;;;340.33;133.85;;;;;;;15.53;35.07;94156.69;4950260;28;20411;-86
2022/01/19 10:04:57;;;;;;;292.10;121.40;;;;;;;15.56;35.02;94161.22;4933731;28;20046;-86
2022/01/19 10:07:24;;;;;;;265.45;119.25;;;;;;;15.59;35.02;94149.38;4916012;28;20047;-86
2022/01/19 10:09:57;;;;;;;286.20;126.05;;;;;;;15.55;35.09;94148.78;4921024;29;20051;-85
2022/01/19 10:18:12;;;;;;;300.13;120.75;;;;;;;15.59;34.94;94135.75;4949779;28;20094;-89
2022/01/19 10:20:38;;;;;;;291.23;124.03;;;;;;;15.64;34.80;94133.06;4934572;28;20036;-86
2022/01/19 10:23:03;;;;;;;344.23;123.43;;;;;;;15.60;34.80;94131.75;4950398;28;20046;-88
2022/01/19 10:26:01;;;;;;;349.58;124.70;;;;;;;15.57;34.75;94119.13;4917266;29;20522;-87
2022/01/19 10:28:27;;;;;;;409.55;127.10;;;;;;;15.55;34.52;94111.38;4927367;29;20126;-84
2022/01/19 10:30:52;;;;;;;371.52;119.35;;;;;;;15.61;35.03;94100.56;4910009;29;20496;-85
2022/01/19 10:33:18;;;;;;;378.58;121.50;;;;;;;15.60;34.94;94104.50;4886753;29;20131;-88
2022/01/19 10:35:45;;;;;;;324.83;114.13;;;;;;;15.67;34.96;94093.97;4926352;29;20412;-87
2022/01/19 10:38:13;;;;;;;391.20;120.75;;;;;;;15.61;34.88;94086.94;4913853;29;20044;-86
2022/01/19 10:40:40;;;;;;;373.63;118.63;;;;;;;15.61;34.86;94082.25;4896816;29;20044;-84
2022/01/19 10:43:27;;;;;;;393.83;126.40;;;;;;;15.64;35.07;94077.81;4894857;29;20051;-86
2022/01/19 10:45:54;;;;;;;374.17;122.25;;;;;;;15.57;35.42;94070.81;4894999;29;20044;-86
2022/01/19 10:48:31;;;;;;;322.13;127.53;;;;;;;15.61;35.05;94068.59;4893622;29;20055;-85
2022/01/19 10:51:07;;;;;;;283.30;116.78;;;;;;;15.64;35.29;94064.19;4866261;29;20044;-89
2022/01/19 10:53:33;;;;;;;292.13;112.03;;;;;;;15.67;35.04;94072.16;4903894;29;20117;-86
2022/01/19 10:55:58;;;;;;;294.55;115.05;;;;;;;15.63;35.09;94059.97;4888247;29;20072;-86
2022/01/19 10:58:24;;;;;;;306.13;110.50;;;;;;;15.64;35.18;94062.22;4895764;29;20040;-86
2022/01/19 11:00:52;;;;;;;320.10;109.10;;;;;;;15.66;35.11;94048.09;4892590;29;20044;-88
2022/01/19 11:03:20;;;;;;;314.23;110.30;;;;;;;15.63;35.34;94038.91;4907268;29;20044;-86
2022/01/19 11:05:47;;;;;;;268.58;105.20;;;;;;;15.63;35.44;94030.72;4925880;29;20049;-85
2022/01/19 11:08:14;;;;;;;270.90;105.57;;;;;;;15.65;35.23;94024.81;4919962;28;20044;-85
2022/01/19 11:10:39;;;;;;;272.10;106.07;;;;;;;15.61;35.69;94024.25;4935519;28;20063;-85
2022/01/19 11:13:12;;;;;;;283.52;105.05;;;;;;;15.69;35.79;94006.28;4905888;28;20039;-86
2022/01/19 11:15:38;;;;;;;272.48;109.40;;;;;;;15.68;35.84;94002.81;4920868;29;20040;-88
2022/01/19 11:18:03;;;;;;;268.88;100.93;;;;;;;15.75;35.68;93979.84;4933955;28;20067;-85
2022/01/19 11:20:29;;;;;;;258.23;102.60;;;;;;;15.74;35.97;93987.25;4952233;28;20039;-85
2022/01/19 11:23:16;;;;;;;277.02;99.97;;;;;;;15.75;35.82;93974.38;4951303;28;20035;-85
2022/01/19 11:25:50;;;;;;;241.88;98.43;;;;;;;15.79;35.50;93985.84;4952758;28;20058;-84
2022/01/19 11:28:27;;;;;;;226.57;91.38;;;;;;;15.78;35.75;93976.16;4920549;28;20050;-84
2022/01/19 11:30:53;;;;;;;216.95;95.72;;;;;;;15.79;35.54;93977.66;4952027;28;20151;-84
2022/01/19 11:33:27;;;;;;;234.27;93.93;;;;;;;15.82;35.73;93973.94;4937888;28;20070;-87
2022/01/19 11:36:03;;;;;;;206.07;91.68;;;;;;;15.82;35.40;93971.22;4936765;28;20122;-89
2022/01/19 11:38:37;;;;;;;214.27;92.78;;;;;;;15.87;35.37;93961.59;4937612;28;20039;-90
2022/01/19 11:41:09;;;;;;;207.85;88.10;;;;;;;15.87;35.66;93951.44;4937784;28;20577;-87
2022/01/19 11:43:35;;;;;;;195.32;88.53;;;;;;;15.89;35.21;93946.28;4975509;28;20050;-90
2022/01/19 11:46:03;;;;;;;202.55;86.30;;;;;;;15.89;35.44;93934.63;4936366;28;20047;-83
2022/01/19 11:48:31;;;;;;;207.50;84.35;;;;;;;15.86;35.01;93933.59;4916636;29;20562;-88
2022/01/19 11:51:26;;;;;;;179.05;81.95;;;;;;;15.73;35.79;93928.53;4932319;28;20039;-87
2022/01/19 11:54:12;;;;;;;178.40;76.55;;;;;;;15.73;35.53;93922.31;4942376;28;20039;-88
2022/01/19 11:57:00;;;;;;;174.00;75.32;;;;;;;15.69;35.73;93919.06;4926641;28;20450;-89
2022/01/19 11:59:34;;;;;;;154.18;74.10;;;;;;;15.74;35.84;93916.41;4979951;28;20046;-91
2022/01/19 12:02:32;;;;;;;171.77;76.32;;;;;;;15.70;35.54;93904.94;4945448;28;20031;-86
2022/01/19 12:04:58;;;;;;;160.07;73.43;;;;;;;15.76;35.80;93897.59;4953232;28;20038;-88
2022/01/19 12:07:52;;;;;;;167.82;71.45;;;;;;;15.67;35.85;93897.75;4970000;28;20047;-88
2022/01/19 12:10:20;;;;;;;179.25;75.90;;;;;;;15.65;35.83;93889.28;4935082;28;20035;-88
2022/01/19 12:16:03;;;;;;;159.07;68.03;;;;;;;15.69;35.86;93873.47;4972032;28;20051;-86
2022/01/19 12:18:46;;;;;;;143.13;68.00;;;;;;;15.67;36.42;93870.47;4956652;28;20031;-86
2022/01/19 12:21:15;;;;;;;150.82;67.72;;;;;;;15.65;35.92;93862.03;4958554;28;20039;-89
2022/01/19 12:23:41;;;;;;;149.93;67.05;;;;;;;15.69;35.96;93857.13;4938916;29;20053;-84
2022/01/19 12:26:09;;;;;;;158.25;69.13;;;;;;;15.67;36.02;93850.66;4939463;28;20043;-90
2022/01/19 12:28:49;;;;;;;144.60;65.75;;;;;;;15.67;36.39;93845.19;4956837;28;20041;-87
2022/01/19 12:31:35;;;;;;;138.57;61.15;;;;;;;15.68;36.08;93841.25;4943652;28;20077;-87
2022/01/19 12:36:48;;;;;;;159.40;77.32;;;;;;;15.69;36.04;93838.03;4973626;28;20043;-86
2022/01/19 12:39:26;;;;;;;178.05;77.15;;;;;;;15.71;35.89;93827.41;4973999;28;20043;-88
2022/01/19 12:42:20;;;;;;;151.77;67.60;;;;;;;15.69;36.04;93829.88;4955025;28;20046;-84
2022/01/19 12:44:55;;;;;;;178.65;68.53;;;;;;;15.70;36.22;93820.47;4935681;29;20585;-85
2022/01/19 12:47:29;;;;;;;129.95;58.75;;;;;;;15.77;36.08;93814.59;4922130;28;20087;-85
2022/01/19 12:49:56;;;;;;;132.82;62.97;;;;;;;15.75;35.83;93819.03;4954933;28;20047;-86